sensor_id;sensor_type;location;lat;lon;timestamp;P1;durP1;ratioP1;P2;durP2;ratioP2
57325;SDS011;43161;50.950;18.224;2022-11-20T00:01:25;69.90;;;26.00;;
57325;SDS011;43161;50.950;18.224;2022-11-20T00:03:52;64.00;;;24.00;;
57325;SDS011;43161;50.950;18.224;2022-11-20T00:06:18;69.40;;;25.60;;
57325;SDS011;43161;50.950;18.224;2022-11-20T00:08:45;67.40;;;24.00;;
57325;SDS011;43161;50.950;18.224;2022-11-20T00:11:13;63.80;;;24.50;;
57325;SDS011;43161;50.950;18.224;2022-11-20T00:13:40;65.30;;;25.70;;
57325;SDS011;43161;50.950;18.224;2022-11-20T00:16:07;64.90;;;25.10;;
57325;SDS011;43161;50.950;18.224;2022-11-20T00:18:35;70.50;;;26.40;;
57325;SDS011;43161;50.950;18.224;2022-11-20T00:21:20;89.90;;;34.60;;
57325;SDS011;43161;50.950;18.224;2022-11-20T00:23:51;110.40;;;38.40;;
57325;SDS011;43161;50.950;18.224;2022-11-20T00:26:19;105.00;;;36.50;;
57325;SDS011;43161;50.950;18.224;2022-11-20T00:28:51;102.30;;;35.20;;
57325;SDS011;43161;50.950;18.224;2022-11-20T00:31:21;105.40;;;36.60;;
57325;SDS011;43161;50.950;18.224;2022-11-20T00:33:47;92.90;;;30.20;;
57325;SDS011;43161;50.950;18.224;2022-11-20T00:36:14;81.90;;;29.20;;
57325;SDS011;43161;50.950;18.224;2022-11-20T00:38:44;71.80;;;26.50;;
57325;SDS011;43161;50.950;18.224;2022-11-20T00:41:11;86.70;;;30.90;;
57325;SDS011;43161;50.950;18.224;2022-11-20T00:43:39;84.80;;;32.10;;
57325;SDS011;43161;50.950;18.224;2022-11-20T00:46:24;87.30;;;32.50;;
57325;SDS011;43161;50.950;18.224;2022-11-20T00:48:51;80.90;;;32.90;;
57325;SDS011;43161;50.950;18.224;2022-11-20T00:51:19;92.70;;;34.20;;
57325;SDS011;43161;50.950;18.224;2022-11-20T00:53:48;85.20;;;32.60;;
57325;SDS011;43161;50.950;18.224;2022-11-20T00:56:15;69.60;;;30.20;;
57325;SDS011;43161;50.950;18.224;2022-11-20T00:58:42;70.00;;;28.20;;
57325;SDS011;43161;50.950;18.224;2022-11-20T01:01:10;66.90;;;28.20;;
57325;SDS011;43161;50.950;18.224;2022-11-20T01:03:37;68.60;;;27.60;;
57325;SDS011;43161;50.950;18.224;2022-11-20T01:06:10;63.70;;;25.30;;
57325;SDS011;43161;50.950;18.224;2022-11-20T01:08:37;67.40;;;27.90;;
57325;SDS011;43161;50.950;18.224;2022-11-20T01:11:13;68.00;;;28.10;;
57325;SDS011;43161;50.950;18.224;2022-11-20T01:13:40;61.10;;;26.70;;
57325;SDS011;43161;50.950;18.224;2022-11-20T01:18:41;71.60;;;27.60;;
57325;SDS011;43161;50.950;18.224;2022-11-20T01:21:11;77.00;;;31.20;;
57325;SDS011;43161;50.950;18.224;2022-11-20T01:23:39;68.60;;;30.20;;
57325;SDS011;43161;50.950;18.224;2022-11-20T01:26:06;69.30;;;27.20;;
57325;SDS011;43161;50.950;18.224;2022-11-20T01:28:33;73.10;;;28.90;;
57325;SDS011;43161;50.950;18.224;2022-11-20T01:30:59;71.20;;;30.10;;
57325;SDS011;43161;50.950;18.224;2022-11-20T01:33:26;75.30;;;30.00;;
57325;SDS011;43161;50.950;18.224;2022-11-20T01:35:52;68.80;;;28.00;;
57325;SDS011;43161;50.950;18.224;2022-11-20T01:38:19;72.00;;;30.00;;
57325;SDS011;43161;50.950;18.224;2022-11-20T01:40:54;66.50;;;26.20;;
57325;SDS011;43161;50.950;18.224;2022-11-20T01:43:21;65.20;;;26.90;;
57325;SDS011;43161;50.950;18.224;2022-11-20T01:45:51;63.60;;;25.90;;
57325;SDS011;43161;50.950;18.224;2022-11-20T01:48:45;67.10;;;25.80;;
57325;SDS011;43161;50.950;18.224;2022-11-20T01:54:19;78.90;;;27.90;;
57325;SDS011;43161;50.950;18.224;2022-11-20T01:56:49;72.20;;;25.50;;
57325;SDS011;43161;50.950;18.224;2022-11-20T01:59:17;73.80;;;25.80;;
57325;SDS011;43161;50.950;18.224;2022-11-20T02:01:44;63.60;;;23.70;;
57325;SDS011;43161;50.950;18.224;2022-11-20T02:04:10;73.50;;;26.60;;
57325;SDS011;43161;50.950;18.224;2022-11-20T02:06:40;64.00;;;24.00;;
57325;SDS011;43161;50.950;18.224;2022-11-20T02:09:09;73.00;;;25.00;;
57325;SDS011;43161;50.950;18.224;2022-11-20T02:11:35;67.20;;;24.40;;
57325;SDS011;43161;50.950;18.224;2022-11-20T02:14:01;80.70;;;26.60;;
57325;SDS011;43161;50.950;18.224;2022-11-20T02:19:19;60.20;;;22.90;;
57325;SDS011;43161;50.950;18.224;2022-11-20T02:24:37;61.60;;;21.40;;
57325;SDS011;43161;50.950;18.224;2022-11-20T02:27:04;71.00;;;23.20;;
57325;SDS011;43161;50.950;18.224;2022-11-20T02:29:55;74.80;;;26.40;;
57325;SDS011;43161;50.950;18.224;2022-11-20T02:32:21;72.20;;;25.90;;
57325;SDS011;43161;50.950;18.224;2022-11-20T02:34:49;69.40;;;26.30;;
57325;SDS011;43161;50.950;18.224;2022-11-20T02:37:14;77.30;;;25.70;;
57325;SDS011;43161;50.950;18.224;2022-11-20T02:39:41;65.10;;;25.30;;
57325;SDS011;43161;50.950;18.224;2022-11-20T02:42:07;69.70;;;24.90;;
57325;SDS011;43161;50.950;18.224;2022-11-20T02:44:33;82.10;;;27.70;;
57325;SDS011;43161;50.950;18.224;2022-11-20T02:46:58;112.00;;;32.60;;
57325;SDS011;43161;50.950;18.224;2022-11-20T02:49:24;75.20;;;26.80;;
57325;SDS011;43161;50.950;18.224;2022-11-20T02:51:50;76.00;;;27.00;;
57325;SDS011;43161;50.950;18.224;2022-11-20T02:54:16;89.60;;;28.20;;
57325;SDS011;43161;50.950;18.224;2022-11-20T02:56:41;75.30;;;28.20;;
57325;SDS011;43161;50.950;18.224;2022-11-20T02:59:07;76.90;;;29.30;;
57325;SDS011;43161;50.950;18.224;2022-11-20T03:01:33;74.70;;;27.10;;
57325;SDS011;43161;50.950;18.224;2022-11-20T03:03:58;83.40;;;29.10;;
57325;SDS011;43161;50.950;18.224;2022-11-20T03:06:24;69.90;;;25.70;;
57325;SDS011;43161;50.950;18.224;2022-11-20T03:08:49;81.50;;;26.00;;
57325;SDS011;43161;50.950;18.224;2022-11-20T03:11:15;83.10;;;30.90;;
57325;SDS011;43161;50.950;18.224;2022-11-20T03:13:42;80.20;;;28.90;;
57325;SDS011;43161;50.950;18.224;2022-11-20T03:16:12;79.40;;;25.50;;
57325;SDS011;43161;50.950;18.224;2022-11-20T03:21:08;76.80;;;26.60;;
57325;SDS011;43161;50.950;18.224;2022-11-20T03:23:35;77.70;;;26.40;;
57325;SDS011;43161;50.950;18.224;2022-11-20T03:26:10;76.50;;;26.70;;
57325;SDS011;43161;50.950;18.224;2022-11-20T03:28:41;70.30;;;25.10;;
57325;SDS011;43161;50.950;18.224;2022-11-20T03:31:11;77.30;;;25.50;;
57325;SDS011;43161;50.950;18.224;2022-11-20T03:33:39;94.40;;;31.40;;
57325;SDS011;43161;50.950;18.224;2022-11-20T03:36:07;88.60;;;30.60;;
57325;SDS011;43161;50.950;18.224;2022-11-20T03:38:34;75.90;;;25.90;;
57325;SDS011;43161;50.950;18.224;2022-11-20T03:41:04;71.30;;;24.30;;
57325;SDS011;43161;50.950;18.224;2022-11-20T03:43:31;75.50;;;27.30;;
57325;SDS011;43161;50.950;18.224;2022-11-20T03:45:57;80.50;;;31.60;;
57325;SDS011;43161;50.950;18.224;2022-11-20T03:48:23;87.40;;;32.10;;
57325;SDS011;43161;50.950;18.224;2022-11-20T03:50:49;105.90;;;37.10;;
57325;SDS011;43161;50.950;18.224;2022-11-20T03:53:14;193.80;;;59.20;;
57325;SDS011;43161;50.950;18.224;2022-11-20T03:55:41;112.40;;;40.60;;
57325;SDS011;43161;50.950;18.224;2022-11-20T03:58:07;107.00;;;36.80;;
57325;SDS011;43161;50.950;18.224;2022-11-20T04:00:32;107.80;;;36.30;;
57325;SDS011;43161;50.950;18.224;2022-11-20T04:02:58;89.30;;;31.90;;
57325;SDS011;43161;50.950;18.224;2022-11-20T04:05:25;95.60;;;34.10;;
57325;SDS011;43161;50.950;18.224;2022-11-20T04:07:50;108.70;;;39.80;;
57325;SDS011;43161;50.950;18.224;2022-11-20T04:10:16;115.30;;;43.00;;
57325;SDS011;43161;50.950;18.224;2022-11-20T04:12:42;112.30;;;41.60;;
57325;SDS011;43161;50.950;18.224;2022-11-20T04:15:08;119.10;;;42.20;;
57325;SDS011;43161;50.950;18.224;2022-11-20T04:17:34;106.60;;;37.20;;
57325;SDS011;43161;50.950;18.224;2022-11-20T04:19:59;98.70;;;36.80;;
57325;SDS011;43161;50.950;18.224;2022-11-20T04:22:25;109.70;;;39.70;;
57325;SDS011;43161;50.950;18.224;2022-11-20T04:24:50;109.80;;;40.80;;
57325;SDS011;43161;50.950;18.224;2022-11-20T04:27:16;102.70;;;41.40;;
57325;SDS011;43161;50.950;18.224;2022-11-20T04:29:42;102.10;;;42.20;;
57325;SDS011;43161;50.950;18.224;2022-11-20T04:32:08;103.80;;;41.30;;
57325;SDS011;43161;50.950;18.224;2022-11-20T04:34:33;104.40;;;40.80;;
57325;SDS011;43161;50.950;18.224;2022-11-20T04:37:00;103.60;;;38.70;;
57325;SDS011;43161;50.950;18.224;2022-11-20T04:39:26;108.30;;;41.10;;
57325;SDS011;43161;50.950;18.224;2022-11-20T04:41:51;107.80;;;43.30;;
57325;SDS011;43161;50.950;18.224;2022-11-20T04:44:40;111.80;;;46.30;;
57325;SDS011;43161;50.950;18.224;2022-11-20T04:47:05;107.70;;;41.40;;
57325;SDS011;43161;50.950;18.224;2022-11-20T04:49:31;109.00;;;42.40;;
57325;SDS011;43161;50.950;18.224;2022-11-20T04:51:57;111.30;;;43.80;;
57325;SDS011;43161;50.950;18.224;2022-11-20T04:54:23;106.60;;;42.40;;
57325;SDS011;43161;50.950;18.224;2022-11-20T04:56:49;114.70;;;41.20;;
57325;SDS011;43161;50.950;18.224;2022-11-20T04:59:15;113.20;;;44.40;;
57325;SDS011;43161;50.950;18.224;2022-11-20T05:01:41;102.70;;;42.60;;
57325;SDS011;43161;50.950;18.224;2022-11-20T05:04:07;102.30;;;40.60;;
57325;SDS011;43161;50.950;18.224;2022-11-20T05:06:33;109.50;;;42.70;;
57325;SDS011;43161;50.950;18.224;2022-11-20T05:08:59;117.20;;;45.30;;
57325;SDS011;43161;50.950;18.224;2022-11-20T05:11:24;133.30;;;46.60;;
57325;SDS011;43161;50.950;18.224;2022-11-20T05:13:50;131.10;;;49.00;;
57325;SDS011;43161;50.950;18.224;2022-11-20T05:16:18;127.50;;;48.20;;
57325;SDS011;43161;50.950;18.224;2022-11-20T05:18:45;121.30;;;48.30;;
57325;SDS011;43161;50.950;18.224;2022-11-20T05:21:10;127.00;;;48.70;;
57325;SDS011;43161;50.950;18.224;2022-11-20T05:23:37;125.00;;;45.90;;
57325;SDS011;43161;50.950;18.224;2022-11-20T05:26:03;126.20;;;45.30;;
57325;SDS011;43161;50.950;18.224;2022-11-20T05:28:29;126.20;;;47.80;;
57325;SDS011;43161;50.950;18.224;2022-11-20T05:30:56;114.70;;;43.90;;
57325;SDS011;43161;50.950;18.224;2022-11-20T05:33:28;108.70;;;42.00;;
57325;SDS011;43161;50.950;18.224;2022-11-20T05:35:57;111.80;;;40.90;;
57325;SDS011;43161;50.950;18.224;2022-11-20T05:38:23;111.90;;;41.90;;
57325;SDS011;43161;50.950;18.224;2022-11-20T05:40:49;106.50;;;39.70;;
57325;SDS011;43161;50.950;18.224;2022-11-20T05:43:14;108.20;;;40.20;;
57325;SDS011;43161;50.950;18.224;2022-11-20T05:45:40;109.70;;;38.20;;
57325;SDS011;43161;50.950;18.224;2022-11-20T05:48:05;114.80;;;42.50;;
57325;SDS011;43161;50.950;18.224;2022-11-20T05:50:31;100.90;;;37.80;;
57325;SDS011;43161;50.950;18.224;2022-11-20T05:52:59;107.30;;;40.20;;
57325;SDS011;43161;50.950;18.224;2022-11-20T05:55:25;122.30;;;41.00;;
57325;SDS011;43161;50.950;18.224;2022-11-20T05:57:55;107.80;;;39.40;;
57325;SDS011;43161;50.950;18.224;2022-11-20T06:00:20;108.50;;;37.70;;
57325;SDS011;43161;50.950;18.224;2022-11-20T06:02:47;103.20;;;36.40;;
57325;SDS011;43161;50.950;18.224;2022-11-20T06:05:12;107.50;;;37.30;;
57325;SDS011;43161;50.950;18.224;2022-11-20T06:07:38;121.60;;;45.30;;
57325;SDS011;43161;50.950;18.224;2022-11-20T06:10:04;132.20;;;49.70;;
57325;SDS011;43161;50.950;18.224;2022-11-20T06:12:31;132.80;;;51.20;;
57325;SDS011;43161;50.950;18.224;2022-11-20T06:14:58;139.70;;;53.20;;
57325;SDS011;43161;50.950;18.224;2022-11-20T06:17:24;129.80;;;50.00;;
57325;SDS011;43161;50.950;18.224;2022-11-20T06:19:49;128.00;;;47.10;;
57325;SDS011;43161;50.950;18.224;2022-11-20T06:22:15;134.20;;;50.50;;
57325;SDS011;43161;50.950;18.224;2022-11-20T06:24:40;131.50;;;50.60;;
57325;SDS011;43161;50.950;18.224;2022-11-20T06:27:06;137.10;;;53.90;;
57325;SDS011;43161;50.950;18.224;2022-11-20T06:29:32;140.80;;;52.20;;
57325;SDS011;43161;50.950;18.224;2022-11-20T06:31:57;130.40;;;49.00;;
57325;SDS011;43161;50.950;18.224;2022-11-20T06:34:23;131.10;;;49.20;;
57325;SDS011;43161;50.950;18.224;2022-11-20T06:36:48;128.70;;;46.80;;
57325;SDS011;43161;50.950;18.224;2022-11-20T06:39:14;130.60;;;43.40;;
57325;SDS011;43161;50.950;18.224;2022-11-20T06:41:39;140.60;;;44.60;;
57325;SDS011;43161;50.950;18.224;2022-11-20T06:44:05;129.40;;;46.90;;
57325;SDS011;43161;50.950;18.224;2022-11-20T06:46:30;147.40;;;46.80;;
57325;SDS011;43161;50.950;18.224;2022-11-20T06:48:56;158.60;;;50.40;;
57325;SDS011;43161;50.950;18.224;2022-11-20T06:51:23;244.90;;;68.20;;
57325;SDS011;43161;50.950;18.224;2022-11-20T06:53:49;230.50;;;63.40;;
57325;SDS011;43161;50.950;18.224;2022-11-20T06:56:14;209.10;;;58.90;;
57325;SDS011;43161;50.950;18.224;2022-11-20T06:58:40;195.40;;;55.70;;
57325;SDS011;43161;50.950;18.224;2022-11-20T07:01:07;241.90;;;64.70;;
57325;SDS011;43161;50.950;18.224;2022-11-20T07:03:34;171.30;;;55.10;;
57325;SDS011;43161;50.950;18.224;2022-11-20T07:06:00;190.10;;;63.80;;
57325;SDS011;43161;50.950;18.224;2022-11-20T07:08:27;218.70;;;65.30;;
57325;SDS011;43161;50.950;18.224;2022-11-20T07:10:56;156.20;;;53.50;;
57325;SDS011;43161;50.950;18.224;2022-11-20T07:13:23;147.50;;;57.20;;
57325;SDS011;43161;50.950;18.224;2022-11-20T07:15:48;139.90;;;51.00;;
57325;SDS011;43161;50.950;18.224;2022-11-20T07:18:14;148.90;;;53.30;;
57325;SDS011;43161;50.950;18.224;2022-11-20T07:20:39;160.70;;;53.00;;
57325;SDS011;43161;50.950;18.224;2022-11-20T07:23:05;137.60;;;52.60;;
57325;SDS011;43161;50.950;18.224;2022-11-20T07:25:31;164.80;;;54.90;;
57325;SDS011;43161;50.950;18.224;2022-11-20T07:28:00;141.20;;;50.50;;
57325;SDS011;43161;50.950;18.224;2022-11-20T07:30:26;126.50;;;46.50;;
57325;SDS011;43161;50.950;18.224;2022-11-20T07:32:53;136.70;;;48.10;;
57325;SDS011;43161;50.950;18.224;2022-11-20T07:35:19;137.80;;;49.00;;
57325;SDS011;43161;50.950;18.224;2022-11-20T07:37:45;128.90;;;46.20;;
57325;SDS011;43161;50.950;18.224;2022-11-20T07:40:15;134.00;;;46.70;;
57325;SDS011;43161;50.950;18.224;2022-11-20T07:42:49;151.30;;;56.20;;
57325;SDS011;43161;50.950;18.224;2022-11-20T07:45:15;143.90;;;57.40;;
57325;SDS011;43161;50.950;18.224;2022-11-20T07:47:41;138.50;;;52.00;;
57325;SDS011;43161;50.950;18.224;2022-11-20T07:50:07;126.60;;;51.30;;
57325;SDS011;43161;50.950;18.224;2022-11-20T07:52:33;141.40;;;53.20;;
57325;SDS011;43161;50.950;18.224;2022-11-20T07:54:58;129.00;;;48.70;;
57325;SDS011;43161;50.950;18.224;2022-11-20T07:57:24;118.40;;;46.70;;
57325;SDS011;43161;50.950;18.224;2022-11-20T07:59:50;114.30;;;45.50;;
57325;SDS011;43161;50.950;18.224;2022-11-20T08:02:16;128.20;;;48.30;;
57325;SDS011;43161;50.950;18.224;2022-11-20T08:04:41;120.50;;;47.30;;
57325;SDS011;43161;50.950;18.224;2022-11-20T08:07:07;123.80;;;47.00;;
57325;SDS011;43161;50.950;18.224;2022-11-20T08:09:32;123.50;;;47.20;;
57325;SDS011;43161;50.950;18.224;2022-11-20T08:11:58;130.30;;;47.20;;
57325;SDS011;43161;50.950;18.224;2022-11-20T08:14:42;116.40;;;48.50;;
57325;SDS011;43161;50.950;18.224;2022-11-20T08:17:07;117.00;;;47.30;;
57325;SDS011;43161;50.950;18.224;2022-11-20T08:19:33;121.60;;;48.70;;
57325;SDS011;43161;50.950;18.224;2022-11-20T08:21:58;123.20;;;45.40;;
57325;SDS011;43161;50.950;18.224;2022-11-20T08:24:24;118.60;;;45.80;;
57325;SDS011;43161;50.950;18.224;2022-11-20T08:26:51;116.30;;;46.00;;
57325;SDS011;43161;50.950;18.224;2022-11-20T08:29:17;123.50;;;49.00;;
57325;SDS011;43161;50.950;18.224;2022-11-20T08:31:43;111.00;;;43.40;;
57325;SDS011;43161;50.950;18.224;2022-11-20T08:34:09;110.70;;;45.80;;
57325;SDS011;43161;50.950;18.224;2022-11-20T08:36:35;121.30;;;48.60;;
57325;SDS011;43161;50.950;18.224;2022-11-20T08:39:01;108.50;;;43.80;;
57325;SDS011;43161;50.950;18.224;2022-11-20T08:41:28;116.90;;;48.60;;
57325;SDS011;43161;50.950;18.224;2022-11-20T08:44:04;107.00;;;42.60;;
57325;SDS011;43161;50.950;18.224;2022-11-20T08:46:32;115.40;;;44.40;;
57325;SDS011;43161;50.950;18.224;2022-11-20T08:49:07;114.90;;;45.80;;
57325;SDS011;43161;50.950;18.224;2022-11-20T08:51:34;109.50;;;42.50;;
57325;SDS011;43161;50.950;18.224;2022-11-20T08:54:00;112.10;;;47.00;;
57325;SDS011;43161;50.950;18.224;2022-11-20T08:56:26;118.00;;;43.20;;
57325;SDS011;43161;50.950;18.224;2022-11-20T08:58:52;117.40;;;45.90;;
57325;SDS011;43161;50.950;18.224;2022-11-20T09:01:18;100.00;;;44.30;;
57325;SDS011;43161;50.950;18.224;2022-11-20T09:03:45;94.10;;;39.50;;
57325;SDS011;43161;50.950;18.224;2022-11-20T09:06:11;89.40;;;38.00;;
57325;SDS011;43161;50.950;18.224;2022-11-20T09:08:37;95.30;;;41.90;;
57325;SDS011;43161;50.950;18.224;2022-11-20T09:11:03;88.20;;;38.50;;
57325;SDS011;43161;50.950;18.224;2022-11-20T09:13:29;92.80;;;38.80;;
57325;SDS011;43161;50.950;18.224;2022-11-20T09:15:59;87.90;;;39.30;;
57325;SDS011;43161;50.950;18.224;2022-11-20T09:18:26;96.10;;;40.60;;
57325;SDS011;43161;50.950;18.224;2022-11-20T09:21:00;94.40;;;39.90;;
57325;SDS011;43161;50.950;18.224;2022-11-20T09:23:26;91.80;;;40.80;;
57325;SDS011;43161;50.950;18.224;2022-11-20T09:25:53;100.70;;;41.80;;
57325;SDS011;43161;50.950;18.224;2022-11-20T09:28:21;84.90;;;37.90;;
57325;SDS011;43161;50.950;18.224;2022-11-20T09:30:46;88.90;;;40.00;;
57325;SDS011;43161;50.950;18.224;2022-11-20T09:33:12;87.30;;;40.30;;
57325;SDS011;43161;50.950;18.224;2022-11-20T09:35:38;84.40;;;39.30;;
57325;SDS011;43161;50.950;18.224;2022-11-20T09:38:05;78.00;;;37.30;;
57325;SDS011;43161;50.950;18.224;2022-11-20T09:40:31;80.90;;;38.40;;
57325;SDS011;43161;50.950;18.224;2022-11-20T09:48:24;82.00;;;38.60;;
57325;SDS011;43161;50.950;18.224;2022-11-20T09:51:18;76.70;;;35.40;;
57325;SDS011;43161;50.950;18.224;2022-11-20T09:56:39;81.40;;;36.70;;
57325;SDS011;43161;50.950;18.224;2022-11-20T09:59:07;68.60;;;32.50;;
57325;SDS011;43161;50.950;18.224;2022-11-20T10:01:58;46.80;;;23.40;;
57325;SDS011;43161;50.950;18.224;2022-11-20T10:04:24;48.50;;;25.00;;
57325;SDS011;43161;50.950;18.224;2022-11-20T10:09:40;51.60;;;24.60;;
57325;SDS011;43161;50.950;18.224;2022-11-20T10:25:50;36.40;;;18.00;;
57325;SDS011;43161;50.950;18.224;2022-11-20T10:28:25;43.60;;;19.50;;
57325;SDS011;43161;50.950;18.224;2022-11-20T10:31:00;34.60;;;16.40;;
57325;SDS011;43161;50.950;18.224;2022-11-20T10:33:33;36.40;;;17.60;;
57325;SDS011;43161;50.950;18.224;2022-11-20T10:38:48;34.30;;;17.60;;
57325;SDS011;43161;50.950;18.224;2022-11-20T10:41:21;34.50;;;16.20;;
57325;SDS011;43161;50.950;18.224;2022-11-20T10:43:50;42.20;;;21.60;;
57325;SDS011;43161;50.950;18.224;2022-11-20T10:49:53;49.20;;;24.60;;
57325;SDS011;43161;50.950;18.224;2022-11-20T11:00:47;42.30;;;20.10;;
57325;SDS011;43161;50.950;18.224;2022-11-20T11:08:51;41.80;;;20.30;;
57325;SDS011;43161;50.950;18.224;2022-11-20T11:14:06;41.00;;;19.50;;
57325;SDS011;43161;50.950;18.224;2022-11-20T11:16:32;53.40;;;25.40;;
57325;SDS011;43161;50.950;18.224;2022-11-20T11:19:06;79.20;;;32.90;;
57325;SDS011;43161;50.950;18.224;2022-11-20T11:21:43;47.00;;;21.80;;
57325;SDS011;43161;50.950;18.224;2022-11-20T11:27:00;53.00;;;24.30;;
57325;SDS011;43161;50.950;18.224;2022-11-20T11:29:32;52.40;;;24.50;;
57325;SDS011;43161;50.950;18.224;2022-11-20T11:34:44;45.70;;;21.20;;
57325;SDS011;43161;50.950;18.224;2022-11-20T11:37:29;44.80;;;22.40;;
57325;SDS011;43161;50.950;18.224;2022-11-20T11:39:58;50.40;;;25.00;;
57325;SDS011;43161;50.950;18.224;2022-11-20T11:42:24;48.20;;;23.40;;
57325;SDS011;43161;50.950;18.224;2022-11-20T11:44:50;48.00;;;25.10;;
57325;SDS011;43161;50.950;18.224;2022-11-20T11:52:42;53.20;;;25.10;;
57325;SDS011;43161;50.950;18.224;2022-11-20T12:00:54;60.80;;;28.40;;
57325;SDS011;43161;50.950;18.224;2022-11-20T12:03:27;58.70;;;29.20;;
57325;SDS011;43161;50.950;18.224;2022-11-20T12:05:59;61.80;;;29.60;;
57325;SDS011;43161;50.950;18.224;2022-11-20T12:11:20;63.40;;;28.80;;
57325;SDS011;43161;50.950;18.224;2022-11-20T12:16:52;66.10;;;32.90;;
57325;SDS011;43161;50.950;18.224;2022-11-20T12:19:18;60.90;;;30.30;;
57325;SDS011;43161;50.950;18.224;2022-11-20T12:21:48;58.80;;;29.00;;
57325;SDS011;43161;50.950;18.224;2022-11-20T12:24:38;56.40;;;29.70;;
57325;SDS011;43161;50.950;18.224;2022-11-20T12:27:22;52.90;;;26.90;;
57325;SDS011;43161;50.950;18.224;2022-11-20T12:30:12;56.30;;;27.80;;
57325;SDS011;43161;50.950;18.224;2022-11-20T12:55:56;42.60;;;23.40;;
57325;SDS011;43161;50.950;18.224;2022-11-20T12:58:47;40.20;;;21.00;;
57325;SDS011;43161;50.950;18.224;2022-11-20T13:06:58;51.60;;;28.50;;
57325;SDS011;43161;50.950;18.224;2022-11-20T13:09:24;54.00;;;27.80;;
57325;SDS011;43161;50.950;18.224;2022-11-20T13:17:28;55.80;;;25.20;;
57325;SDS011;43161;50.950;18.224;2022-11-20T13:19:58;52.60;;;25.40;;
57325;SDS011;43161;50.950;18.224;2022-11-20T13:22:28;58.10;;;26.60;;
57325;SDS011;43161;50.950;18.224;2022-11-20T13:25:08;57.50;;;29.10;;
57325;SDS011;43161;50.950;18.224;2022-11-20T13:27:35;59.00;;;28.30;;
57325;SDS011;43161;50.950;18.224;2022-11-20T13:30:02;77.50;;;41.40;;
57325;SDS011;43161;50.950;18.224;2022-11-20T13:35:58;60.20;;;29.70;;
57325;SDS011;43161;50.950;18.224;2022-11-20T13:38:26;63.10;;;28.10;;
57325;SDS011;43161;50.950;18.224;2022-11-20T13:40:53;62.90;;;28.00;;
57325;SDS011;43161;50.950;18.224;2022-11-20T13:46:07;99.80;;;38.90;;
57325;SDS011;43161;50.950;18.224;2022-11-20T13:48:38;139.10;;;73.80;;
57325;SDS011;43161;50.950;18.224;2022-11-20T14:05:52;69.40;;;30.50;;
57325;SDS011;43161;50.950;18.224;2022-11-20T14:08:23;97.50;;;39.60;;
57325;SDS011;43161;50.950;18.224;2022-11-20T14:11:02;279.40;;;87.80;;
57325;SDS011;43161;50.950;18.224;2022-11-20T14:13:28;338.90;;;100.00;;
57325;SDS011;43161;50.950;18.224;2022-11-20T14:15:56;283.30;;;86.20;;
57325;SDS011;43161;50.950;18.224;2022-11-20T14:18:24;293.50;;;95.30;;
57325;SDS011;43161;50.950;18.224;2022-11-20T14:20:51;206.90;;;75.60;;
57325;SDS011;43161;50.950;18.224;2022-11-20T14:26:00;145.90;;;60.30;;
57325;SDS011;43161;50.950;18.224;2022-11-20T14:28:27;108.80;;;49.40;;
57325;SDS011;43161;50.950;18.224;2022-11-20T14:30:54;77.70;;;35.70;;
57325;SDS011;43161;50.950;18.224;2022-11-20T14:33:20;106.60;;;48.70;;
57325;SDS011;43161;50.950;18.224;2022-11-20T14:35:52;117.50;;;50.30;;
57325;SDS011;43161;50.950;18.224;2022-11-20T14:38:22;91.80;;;42.30;;
57325;SDS011;43161;50.950;18.224;2022-11-20T14:40:50;85.40;;;38.30;;
57325;SDS011;43161;50.950;18.224;2022-11-20T14:43:20;83.50;;;40.10;;
57325;SDS011;43161;50.950;18.224;2022-11-20T14:45:58;98.30;;;46.10;;
57325;SDS011;43161;50.950;18.224;2022-11-20T14:48:28;93.30;;;41.20;;
57325;SDS011;43161;50.950;18.224;2022-11-20T14:50:56;85.80;;;37.40;;
57325;SDS011;43161;50.950;18.224;2022-11-20T14:53:23;92.10;;;39.80;;
57325;SDS011;43161;50.950;18.224;2022-11-20T14:55:57;97.60;;;43.40;;
57325;SDS011;43161;50.950;18.224;2022-11-20T15:00:58;175.40;;;62.40;;
57325;SDS011;43161;50.950;18.224;2022-11-20T15:06:12;114.20;;;46.10;;
57325;SDS011;43161;50.950;18.224;2022-11-20T15:08:38;142.10;;;50.80;;
57325;SDS011;43161;50.950;18.224;2022-11-20T15:11:14;158.90;;;52.80;;
57325;SDS011;43161;50.950;18.224;2022-11-20T15:13:43;165.50;;;54.70;;
57325;SDS011;43161;50.950;18.224;2022-11-20T15:16:13;182.00;;;57.20;;
57325;SDS011;43161;50.950;18.224;2022-11-20T15:18:44;150.40;;;48.60;;
57325;SDS011;43161;50.950;18.224;2022-11-20T15:21:11;111.40;;;41.90;;
57325;SDS011;43161;50.950;18.224;2022-11-20T15:23:38;100.10;;;38.60;;
57325;SDS011;43161;50.950;18.224;2022-11-20T15:26:07;126.90;;;43.40;;
57325;SDS011;43161;50.950;18.224;2022-11-20T15:28:35;127.60;;;42.50;;
57325;SDS011;43161;50.950;18.224;2022-11-20T15:31:13;119.00;;;44.10;;
57325;SDS011;43161;50.950;18.224;2022-11-20T15:33:40;90.40;;;37.20;;
57325;SDS011;43161;50.950;18.224;2022-11-20T15:36:08;93.40;;;36.80;;
57325;SDS011;43161;50.950;18.224;2022-11-20T15:38:34;89.70;;;38.30;;
57325;SDS011;43161;50.950;18.224;2022-11-20T15:41:00;98.30;;;39.70;;
57325;SDS011;43161;50.950;18.224;2022-11-20T15:43:26;110.00;;;43.70;;
57325;SDS011;43161;50.950;18.224;2022-11-20T15:45:58;132.50;;;55.80;;
57325;SDS011;43161;50.950;18.224;2022-11-20T15:48:29;124.60;;;52.90;;
57325;SDS011;43161;50.950;18.224;2022-11-20T15:53:46;134.40;;;59.50;;
57325;SDS011;43161;50.950;18.224;2022-11-20T15:56:12;131.70;;;54.10;;
57325;SDS011;43161;50.950;18.224;2022-11-20T15:58:38;126.10;;;53.70;;
57325;SDS011;43161;50.950;18.224;2022-11-20T16:01:04;110.00;;;44.80;;
57325;SDS011;43161;50.950;18.224;2022-11-20T16:03:30;103.10;;;45.40;;
57325;SDS011;43161;50.950;18.224;2022-11-20T16:05:56;113.00;;;48.70;;
57325;SDS011;43161;50.950;18.224;2022-11-20T16:08:21;78.80;;;33.90;;
57325;SDS011;43161;50.950;18.224;2022-11-20T16:10:47;90.90;;;36.40;;
57325;SDS011;43161;50.950;18.224;2022-11-20T16:13:13;174.90;;;65.80;;
57325;SDS011;43161;50.950;18.224;2022-11-20T16:16:01;108.20;;;44.10;;
57325;SDS011;43161;50.950;18.224;2022-11-20T16:18:30;113.30;;;42.20;;
57325;SDS011;43161;50.950;18.224;2022-11-20T16:20:55;101.10;;;41.40;;
57325;SDS011;43161;50.950;18.224;2022-11-20T16:23:21;99.00;;;38.30;;
57325;SDS011;43161;50.950;18.224;2022-11-20T16:25:47;114.20;;;45.40;;
57325;SDS011;43161;50.950;18.224;2022-11-20T16:28:13;120.80;;;46.80;;
57325;SDS011;43161;50.950;18.224;2022-11-20T16:30:39;167.30;;;62.70;;
57325;SDS011;43161;50.950;18.224;2022-11-20T16:33:08;92.60;;;39.50;;
57325;SDS011;43161;50.950;18.224;2022-11-20T16:35:37;92.50;;;38.60;;
57325;SDS011;43161;50.950;18.224;2022-11-20T16:38:03;74.10;;;32.10;;
57325;SDS011;43161;50.950;18.224;2022-11-20T16:40:28;65.90;;;26.40;;